Time;durP1;ratioP1;P1;durP2;ratioP2;P2;SDS_P1;SDS_P2;PMS_P1;PMS_P2;Temp;Humidity;BMP_temperature;BMP_pressure;BME280_temperature;BME280_humidity;BME280_pressure;Samples;Min_cycle;Max_cycle;Signal;HPM_P1;HPM_P2
2022/01/13 00:00:09;;;;;;;29.70;17.40;;;;;;;6.80;49.61;102968.06;10522636;28;20600;-82
2022/01/13 00:05:11;;;;;;;31.20;17.43;;;;;;;6.51;50.46;102968.81;10513894;28;20214;-82
2022/01/13 00:10:14;;;;;;;32.73;17.73;;;;;;;6.74;49.07;102980.16;10528406;28;20207;-82
2022/01/13 00:25:42;;;;;;;31.03;17.73;;;;;;;7.05;47.91;102993.13;10524031;28;20198;-82
2022/01/13 00:30:49;;;;;;;33.00;18.73;;;;;;;6.63;49.41;102994.88;10512922;28;20238;-83
2022/01/13 00:35:54;;;;;;;33.33;18.63;;;;;;;6.81;48.76;102994.06;10518761;28;20238;-83
2022/01/13 00:40:57;;;;;;;33.80;19.43;;;;;;;7.06;48.57;102974.41;10520368;28;20703;-83
2022/01/13 00:45:59;;;;;;;30.97;17.30;;;;;;;6.35;49.69;102981.41;10520180;28;20318;-83
2022/01/13 00:51:02;;;;;;;33.73;18.53;;;;;;;6.62;49.50;102975.56;10516720;28;20346;-82
2022/01/13 00:56:04;;;;;;;32.77;18.80;;;;;;;6.22;50.47;102977.88;10513634;28;20592;-82
2022/01/13 01:01:07;;;;;;;37.07;19.57;;;;;;;6.60;49.58;102981.38;10483906;28;20556;-83
2022/01/13 01:06:10;;;;;;;34.57;20.07;;;;;;;5.95;51.11;102991.19;10514474;28;20553;-82
2022/01/13 01:11:13;;;;;;;38.43;19.87;;;;;;;6.48;49.87;102986.00;10496847;28;20296;-81
2022/01/13 01:16:17;;;;;;;37.27;21.57;;;;;;;5.33;52.85;103004.84;10504005;28;20226;-82
2022/01/13 01:31:34;;;;;;;36.93;20.10;;;;;;;6.38;49.80;103003.28;10523967;28;20255;-81
2022/01/13 01:36:36;;;;;;;36.70;19.50;;;;;;;6.79;48.88;103005.47;10495734;28;20253;-82
2022/01/13 01:41:49;;;;;;;40.83;22.27;;;;;;;7.18;48.20;103008.91;10512560;28;20195;-82
2022/01/13 01:46:51;;;;;;;40.00;20.10;;;;;;;6.91;48.01;103013.06;10519819;28;20631;-83
2022/01/13 01:51:59;;;;;;;36.57;21.40;;;;;;;6.29;50.58;103021.44;10525277;28;20258;-82
2022/01/13 01:57:02;;;;;;;37.53;20.53;;;;;;;6.07;50.83;103017.31;10510634;28;20230;-83
2022/01/13 02:02:05;;;;;;;39.63;21.03;;;;;;;6.86;48.86;103009.03;10490293;28;20259;-82
2022/01/13 02:07:08;;;;;;;39.37;22.40;;;;;;;6.74;49.11;103013.69;10525625;28;20231;-82
2022/01/13 02:12:15;;;;;;;46.70;21.73;;;;;;;6.43;50.04;103002.63;10499665;28;20299;-83
2022/01/13 02:17:24;;;;;;;35.77;20.67;;;;;;;6.37;50.31;103006.31;10495826;28;20252;-82
2022/01/13 02:22:26;;;;;;;41.30;21.53;;;;;;;6.47;50.11;103006.63;10499103;28;20287;-82
2022/01/13 02:27:28;;;;;;;37.80;20.33;;;;;;;5.58;52.45;103001.28;10500345;28;20275;-82
2022/01/13 02:32:30;;;;;;;36.77;20.33;;;;;;;5.81;51.88;102998.84;10475495;28;20225;-83
2022/01/13 02:37:33;;;;;;;40.73;20.37;;;;;;;5.14;53.78;103010.53;10514160;28;20260;-82
2022/01/13 02:42:35;;;;;;;35.53;20.13;;;;;;;6.22;50.73;102991.84;10517705;28;20255;-82
2022/01/13 02:47:59;;;;;;;38.77;20.80;;;;;;;6.13;50.87;102988.50;10517108;28;20207;-82
2022/01/13 02:53:01;;;;;;;40.00;21.13;;;;;;;5.80;51.20;102989.63;10520621;28;20314;-82
2022/01/13 02:58:04;;;;;;;39.10;20.73;;;;;;;6.41;50.44;102980.50;10518257;28;20491;-82
2022/01/13 03:03:06;;;;;;;40.20;21.00;;;;;;;6.26;50.69;102981.94;10539349;28;20636;-82
2022/01/13 03:08:08;;;;;;;44.27;21.23;;;;;;;5.49;52.31;102985.91;10524915;28;20701;-82
2022/01/13 03:13:10;;;;;;;44.70;22.03;;;;;;;6.21;50.55;102977.03;10542162;28;20214;-81
2022/01/13 03:18:13;;;;;;;43.23;21.30;;;;;;;6.51;50.04;102971.59;10487303;28;20239;-82
2022/01/13 03:23:17;;;;;;;44.20;21.60;;;;;;;6.30;50.65;102981.25;10482727;28;20210;-81
2022/01/13 03:28:29;;;;;;;42.90;21.80;;;;;;;5.97;51.79;102980.66;10483247;28;20587;-80
2022/01/13 03:33:32;;;;;;;49.57;22.37;;;;;;;6.78;49.33;102974.97;10499329;28;20264;-83
2022/01/13 03:38:34;;;;;;;45.73;23.87;;;;;;;6.24;50.72;102972.94;10499309;28;20245;-82
2022/01/13 03:43:37;;;;;;;48.17;21.67;;;;;;;5.88;51.75;102974.53;10482324;28;20191;-82
2022/01/13 03:48:39;;;;;;;49.27;24.30;;;;;;;6.48;51.02;102975.69;10500214;28;20195;-82
2022/01/13 03:54:26;;;;;;;49.33;24.13;;;;;;;6.18;52.29;102969.13;10496195;28;20257;-82
2022/01/13 03:59:56;;;;;;;50.97;23.80;;;;;;;6.90;50.06;102961.91;10529234;28;20232;-82
2022/01/13 04:04:58;;;;;;;48.07;22.77;;;;;;;5.71;52.97;102962.16;10535096;28;20244;-82
2022/01/13 04:11:02;;;;;;;48.57;23.53;;;;;;;5.80;53.02;102960.88;10503659;28;20643;-82
2022/01/13 04:16:04;;;;;;;57.17;25.37;;;;;;;6.01;52.41;102945.66;10350070;28;20257;-82
2022/01/13 04:21:07;;;;;;;53.20;25.10;;;;;;;6.44;51.52;102934.53;10498529;28;20226;-82
2022/01/13 04:26:09;;;;;;;52.97;24.53;;;;;;;6.18;52.04;102932.84;10565972;28;20247;-82
2022/01/13 04:31:11;;;;;;;55.60;24.10;;;;;;;6.85;50.04;102937.47;10548865;28;20186;-83
2022/01/13 04:36:14;;;;;;;55.77;26.10;;;;;;;7.07;49.96;102929.47;10582399;28;20190;-82
2022/01/13 04:41:28;;;;;;;50.77;24.93;;;;;;;6.07;51.88;102922.44;10565396;28;20247;-81
2022/01/13 04:46:30;;;;;;;57.53;24.80;;;;;;;6.40;51.94;102922.09;10550286;28;20186;-81
2022/01/13 04:51:33;;;;;;;49.63;24.03;;;;;;;7.02;49.49;102932.09;10560819;28;20266;-82
2022/01/13 04:56:42;;;;;;;51.83;24.40;;;;;;;6.58;50.46;102930.50;10520199;28;20203;-82
2022/01/13 05:01:44;;;;;;;46.77;23.87;;;;;;;6.73;50.35;102928.16;10523403;28;20252;-82
2022/01/13 05:06:47;;;;;;;46.67;24.37;;;;;;;6.71;50.28;102927.56;10521711;28;20619;-81
2022/01/13 05:11:49;;;;;;;42.80;22.93;;;;;;;6.27;51.96;102933.41;10521014;28;20280;-82
2022/01/13 05:17:02;;;;;;;46.43;23.47;;;;;;;6.11;52.57;102935.69;10539068;28;20234;-81
2022/01/13 05:22:15;;;;;;;46.50;20.27;;;;;;;6.35;51.84;102919.13;10538914;28;20917;-80
2022/01/13 05:27:19;;;;;;;44.20;22.10;;;;;;;6.26;51.41;102914.94;10525110;28;20491;-82
2022/01/13 05:32:21;;;;;;;43.90;20.97;;;;;;;6.44;51.22;102907.44;10576413;28;20214;-81
2022/01/13 05:37:23;;;;;;;39.23;20.57;;;;;;;6.86;50.20;102914.00;10513313;28;20243;-82
2022/01/13 05:42:26;;;;;;;41.07;21.53;;;;;;;6.60;50.44;102905.94;10536850;28;20232;-83
2022/01/13 05:47:28;;;;;;;38.53;20.77;;;;;;;6.32;51.20;102905.66;10532043;28;20251;-83
2022/01/13 05:52:30;;;;;;;42.00;21.40;;;;;;;5.83;52.58;102910.16;10579740;28;20608;-82
2022/01/13 05:57:32;;;;;;;48.80;23.00;;;;;;;6.24;51.47;102923.53;10563754;28;20591;-83
2022/01/13 06:02:34;;;;;;;43.57;22.23;;;;;;;6.96;49.82;102926.59;10554065;28;20206;-83
2022/01/13 06:07:37;;;;;;;47.50;22.53;;;;;;;6.53;50.52;102920.00;10519818;28;20549;-82
2022/01/13 06:12:39;;;;;;;40.10;22.30;;;;;;;6.52;51.13;102903.47;10537259;28;20254;-83
2022/01/13 06:17:42;;;;;;;42.67;22.40;;;;;;;6.18;51.65;102912.44;10507249;28;20638;-82
2022/01/13 06:22:46;;;;;;;40.73;20.93;;;;;;;6.09;51.72;102920.25;10524363;28;20202;-82
2022/01/13 06:27:48;;;;;;;42.20;22.33;;;;;;;6.42;51.47;102920.78;10526106;28;20198;-82
2022/01/13 06:33:10;;;;;;;41.97;22.37;;;;;;;7.54;48.49;102908.16;10542820;28;20218;-82
2022/01/13 06:38:12;;;;;;;42.23;22.50;;;;;;;6.44;51.10;102901.00;10543884;28;20648;-82
2022/01/13 06:43:14;;;;;;;45.57;22.97;;;;;;;6.34;51.12;102895.94;10546818;28;20282;-84
2022/01/13 06:48:17;;;;;;;42.40;22.00;;;;;;;6.57;50.92;102889.69;10516036;28;20255;-82
2022/01/13 06:53:21;;;;;;;47.23;23.47;;;;;;;6.48;50.93;102882.69;10541936;28;20472;-83
2022/01/13 06:58:23;;;;;;;47.60;24.20;;;;;;;5.72;53.04;102899.72;10526129;28;20206;-82
2022/01/13 07:03:25;;;;;;;47.93;23.83;;;;;;;6.38;51.23;102899.13;10557400;28;20207;-83
2022/01/13 07:08:28;;;;;;;48.13;24.40;;;;;;;7.21;49.07;102899.41;10543814;28;20226;-82
2022/01/13 07:13:31;;;;;;;47.97;23.70;;;;;;;6.96;49.81;102916.28;10509403;28;20638;-80
2022/01/13 07:18:39;;;;;;;50.17;25.40;;;;;;;7.10;49.46;102922.56;10527238;28;20226;-83
2022/01/13 07:23:49;;;;;;;47.03;23.97;;;;;;;6.14;51.65;102929.66;10523135;28;20223;-82
2022/01/13 07:28:51;;;;;;;44.50;22.90;;;;;;;5.81;52.43;102935.50;10549924;28;20194;-82
2022/01/13 07:33:58;;;;;;;45.60;24.40;;;;;;;6.47;51.16;102937.69;10573000;28;20270;-84
2022/01/13 07:39:00;;;;;;;50.07;23.17;;;;;;;6.75;50.18;102951.13;10576910;28;20227;-81
2022/01/13 07:44:04;;;;;;;47.07;22.93;;;;;;;6.05;52.90;102958.94;10568963;28;20252;-81
2022/01/13 07:49:06;;;;;;;48.73;24.00;;;;;;;5.43;53.42;102954.19;10542541;28;20263;-84
2022/01/13 07:54:08;;;;;;;52.87;24.73;;;;;;;6.43;51.50;102949.56;10569769;28;20488;-83
2022/01/13 07:59:10;;;;;;;51.67;25.50;;;;;;;6.51;50.98;102952.03;10569473;28;20480;-81
2022/01/13 08:04:13;;;;;;;45.60;24.23;;;;;;;6.38;51.36;102952.19;10544733;28;20198;-82
2022/01/13 08:09:15;;;;;;;47.97;23.90;;;;;;;5.63;53.03;102949.34;10567277;28;20247;-84
2022/01/13 08:14:17;;;;;;;46.00;22.80;;;;;;;6.59;50.78;102943.38;10530980;28;20222;-82
2022/01/13 08:24:41;;;;;;;48.53;23.63;;;;;;;6.36;52.03;102946.81;10572700;28;20223;-82
2022/01/13 08:29:43;;;;;;;42.63;21.53;;;;;;;6.38;51.90;102946.59;10545079;28;20252;-81
2022/01/13 08:34:46;;;;;;;38.53;20.77;;;;;;;6.11;52.32;102946.84;10549992;28;20218;-81
2022/01/13 08:39:49;;;;;;;44.93;22.23;;;;;;;6.16;51.91;102958.19;10552794;28;20202;-81
2022/01/13 08:44:51;;;;;;;41.97;21.43;;;;;;;7.51;48.60;102958.13;10552491;28;20206;-81
2022/01/13 08:49:53;;;;;;;41.77;21.57;;;;;;;6.55;50.89;102958.03;10529236;28;20243;-81
2022/01/13 08:54:56;;;;;;;41.30;21.50;;;;;;;7.27;48.63;102957.16;10515717;28;20225;-81
2022/01/13 08:59:58;;;;;;;42.30;22.97;;;;;;;7.54;47.88;102964.09;10544779;28;20201;-81
2022/01/13 09:05:01;;;;;;;41.40;21.80;;;;;;;6.82;50.08;102960.31;10572189;28;20202;-81
2022/01/13 09:10:04;;;;;;;44.67;22.57;;;;;;;6.67;49.89;102979.38;10544791;28;20272;-82
2022/01/13 09:15:32;;;;;;;44.07;21.30;;;;;;;7.30;48.70;102979.06;10524706;28;20227;-82
2022/01/13 09:20:35;;;;;;;38.97;20.80;;;;;;;7.05;49.65;102975.50;10532370;28;20468;-81
2022/01/13 09:25:37;;;;;;;44.47;22.23;;;;;;;6.24;51.90;102987.75;10549779;28;20537;-81
2022/01/13 09:30:39;;;;;;;43.00;21.27;;;;;;;7.14;49.23;102985.25;10565183;28;20198;-81
2022/01/13 09:35:42;;;;;;;45.67;22.73;;;;;;;7.01;49.28;102991.88;10532940;28;20271;-82
2022/01/13 09:40:45;;;;;;;42.13;21.30;;;;;;;7.87;47.32;102996.34;10512629;28;20199;-81
2022/01/13 09:45:50;;;;;;;42.03;21.07;;;;;;;8.25;46.50;102988.38;10522103;28;20201;-81
2022/01/13 09:50:52;;;;;;;41.77;22.37;;;;;;;7.26;48.18;102994.59;10568188;28;20198;-81
2022/01/13 09:55:55;;;;;;;46.00;21.23;;;;;;;6.37;50.04;103007.16;10568918;28;20217;-82
2022/01/13 10:00:57;;;;;;;44.10;22.33;;;;;;;7.86;47.32;102997.44;10586758;28;20605;-82
2022/01/13 10:06:02;;;;;;;45.93;22.07;;;;;;;6.73;50.49;102999.94;10568262;28;20248;-81
2022/01/13 10:11:27;;;;;;;44.90;22.33;;;;;;;7.18;48.83;102997.72;10569007;28;20198;-81
2022/01/13 10:16:29;;;;;;;42.23;22.47;;;;;;;7.46;48.56;102992.41;10585128;28;20221;-81
2022/01/13 10:21:31;;;;;;;41.77;22.10;;;;;;;7.83;47.51;102989.50;10568258;28;20247;-81
2022/01/13 10:26:34;;;;;;;41.43;23.03;;;;;;;7.84;47.84;102986.47;10568147;28;20186;-82
2022/01/13 10:32:06;;;;;;;43.00;22.40;;;;;;;7.90;46.65;102979.03;10585642;28;20219;-82
2022/01/13 10:37:14;;;;;;;38.57;21.07;;;;;;;8.45;45.87;102971.22;10550680;28;20229;-81
2022/01/13 10:47:40;;;;;;;39.50;21.00;;;;;;;8.26;47.01;102978.88;10585387;28;20185;-82
2022/01/13 10:52:42;;;;;;;40.37;21.30;;;;;;;7.93;47.59;102962.63;10567128;28;20186;-82
2022/01/13 10:57:47;;;;;;;38.53;21.33;;;;;;;8.28;47.22;102959.84;10584957;28;20190;-82
2022/01/13 11:03:11;;;;;;;37.57;20.50;;;;;;;8.58;46.88;102948.56;10566972;28;20266;-82
2022/01/13 11:08:24;;;;;;;38.97;20.67;;;;;;;7.47;48.96;102946.56;10574719;28;20505;-80
2022/01/13 11:13:29;;;;;;;37.43;20.97;;;;;;;8.31;47.34;102936.97;10575810;28;20210;-82
2022/01/13 11:18:33;;;;;;;37.07;20.43;;;;;;;8.64;46.65;102938.34;10537184;28;20766;-82
2022/01/13 11:23:37;;;;;;;41.07;20.83;;;;;;;8.32;47.64;102932.22;10538893;28;20216;-81
2022/01/13 11:28:40;;;;;;;42.93;21.07;;;;;;;8.49;47.13;102921.19;10535295;28;20197;-81
2022/01/13 11:33:42;;;;;;;34.20;19.90;;;;;;;8.29;47.75;102911.16;10565762;28;20238;-82
2022/01/13 11:39:06;;;;;;;37.97;19.87;;;;;;;8.77;46.98;102897.97;10581272;28;20247;-82
2022/01/13 11:44:12;;;;;;;34.50;19.80;;;;;;;8.83;47.14;102895.03;10579077;28;20269;-81
2022/01/13 11:49:20;;;;;;;34.07;19.80;;;;;;;8.39;48.16;102892.91;10574265;28;20207;-81
2022/01/13 11:54:26;;;;;;;36.83;19.50;;;;;;;8.75;46.77;102887.03;10557851;28;20559;-81
2022/01/13 11:59:54;;;;;;;33.33;17.90;;;;;;;9.21;46.42;102883.19;10544258;28;20259;-82
2022/01/13 12:05:06;;;;;;;33.23;18.03;;;;;;;9.66;45.46;102869.19;10529887;28;20199;-82
2022/01/13 12:10:10;;;;;;;32.57;18.27;;;;;;;9.57;45.12;102856.69;10519125;28;20203;-81
2022/01/13 12:15:24;;;;;;;30.23;16.43;;;;;;;9.54;45.31;102856.31;10538451;28;20529;-82
2022/01/13 12:20:40;;;;;;;30.73;17.60;;;;;;;10.56;43.43;102844.72;10516343;28;20210;-81
2022/01/13 12:25:43;;;;;;;31.37;17.73;;;;;;;8.84;47.91;102851.03;10559955;28;20198;-82
2022/01/13 12:30:46;;;;;;;32.53;17.20;;;;;;;9.81;45.20;102834.06;10539443;28;20656;-81
2022/01/13 12:35:48;;;;;;;30.47;16.60;;;;;;;9.53;45.36;102832.16;10547510;28;20292;-82
2022/01/13 12:40:59;;;;;;;32.23;16.17;;;;;;;10.13;44.59;102828.63;10527513;28;20203;-81
2022/01/13 12:46:08;;;;;;;25.83;13.97;;;;;;;9.51;45.60;102828.75;10547015;28;20648;-82
2022/01/13 12:51:18;;;;;;;28.30;13.90;;;;;;;9.47;45.08;102822.78;10512705;28;20645;-81
2022/01/13 12:56:27;;;;;;;27.67;14.63;;;;;;;8.84;46.03;102823.84;10529007;28;20217;-81
2022/01/13 13:01:32;;;;;;;35.40;17.10;;;;;;;8.37;47.80;102822.25;10549779;28;20256;-82
2022/01/13 13:06:37;;;;;;;27.97;14.13;;;;;;;8.66;47.44;102818.44;10545931;28;20210;-81
2022/01/13 13:11:43;;;;;;;28.27;16.00;;;;;;;9.72;44.70;102808.34;10528326;28;20535;-80
2022/01/13 13:16:48;;;;;;;28.47;15.03;;;;;;;10.36;43.14;102797.50;10511636;28;20245;-80
2022/01/13 13:21:54;;;;;;;28.37;16.03;;;;;;;10.02;44.03;102796.75;10528714;28;20187;-82
2022/01/13 13:26:56;;;;;;;24.63;14.10;;;;;;;9.10;45.32;102799.09;10524159;28;20496;-81
2022/01/13 13:31:59;;;;;;;26.77;14.33;;;;;;;8.77;46.63;102794.28;10543074;28;20206;-81
2022/01/13 13:37:01;;;;;;;23.67;13.67;;;;;;;9.04;45.69;102794.53;10525405;28;20497;-81
2022/01/13 13:42:04;;;;;;;27.93;13.83;;;;;;;9.79;44.17;102782.91;10541304;28;20241;-81
2022/01/13 13:47:10;;;;;;;25.43;12.90;;;;;;;10.72;42.65;102781.97;10535192;28;20213;-81
2022/01/13 13:52:12;;;;;;;25.20;13.07;;;;;;;10.51;42.41;102782.78;10529872;28;20232;-80
2022/01/13 13:57:16;;;;;;;23.67;12.30;;;;;;;9.83;43.84;102784.13;10547030;28;20218;-81
2022/01/13 14:02:25;;;;;;;21.37;12.20;;;;;;;10.07;43.76;102788.41;10544259;28;20202;-81
2022/01/13 14:07:44;;;;;;;21.73;12.20;;;;;;;9.75;44.26;102768.53;10525495;28;20240;-81
2022/01/13 14:12:58;;;;;;;24.40;11.87;;;;;;;10.08;44.45;102774.09;10523060;28;20224;-82
2022/01/13 14:18:14;;;;;;;22.97;13.27;;;;;;;9.91;44.39;102776.09;10530286;28;20226;-81
2022/01/13 14:23:19;;;;;;;22.80;12.40;;;;;;;9.66;44.50;102765.34;10537038;28;20495;-81
2022/01/13 14:28:21;;;;;;;27.53;13.10;;;;;;;9.73;44.55;102763.19;10506754;28;20236;-82
2022/01/13 14:33:27;;;;;;;21.93;12.97;;;;;;;10.01;44.02;102769.75;10540288;28;20228;-82
2022/01/13 14:38:50;;;;;;;26.03;14.30;;;;;;;9.19;45.93;102763.94;10519929;28;20299;-82
2022/01/13 14:43:56;;;;;;;24.33;13.33;;;;;;;10.38;43.46;102759.59;10537549;28;20210;-81
2022/01/13 14:48:59;;;;;;;25.67;13.77;;;;;;;9.38;45.60;102751.38;10520065;28;20228;-81
2022/01/13 14:54:01;;;;;;;23.93;13.63;;;;;;;9.67;44.66;102755.81;10523119;28;20186;-82
2022/01/13 14:59:04;;;;;;;26.40;13.90;;;;;;;9.85;44.53;102751.00;10522483;28;20198;-81
2022/01/13 15:04:06;;;;;;;27.47;13.80;;;;;;;9.90;43.73;102748.28;10521601;28;20191;-81
2022/01/13 15:09:08;;;;;;;27.93;14.80;;;;;;;9.50;45.62;102752.13;10521235;28;20539;-81
2022/01/13 15:14:10;;;;;;;28.80;13.97;;;;;;;10.15;43.48;102745.81;10506202;28;20268;-80
2022/01/13 15:19:15;;;;;;;25.70;13.97;;;;;;;9.98;43.74;102745.84;10523008;28;20222;-81
2022/01/13 15:24:17;;;;;;;28.77;15.10;;;;;;;9.60;45.13;102755.13;10528438;28;20226;-83
2022/01/13 15:29:20;;;;;;;23.43;14.23;;;;;;;10.17;43.45;102737.97;10522961;28;20214;-83
2022/01/13 15:34:22;;;;;;;29.70;15.80;;;;;;;9.93;44.24;102747.75;10538722;28;20226;-82
2022/01/13 15:39:24;;;;;;;23.00;13.20;;;;;;;10.42;42.52;102746.72;10510300;28;20220;-83
2022/01/13 15:44:26;;;;;;;27.83;14.57;;;;;;;9.89;43.48;102741.81;10521121;28;20483;-83
2022/01/13 15:49:29;;;;;;;25.10;14.20;;;;;;;9.17;44.83;102740.91;10555880;28;20202;-82
2022/01/13 15:54:31;;;;;;;25.23;13.60;;;;;;;9.90;43.06;102737.03;10523995;28;20308;-83
2022/01/13 15:59:34;;;;;;;25.03;14.30;;;;;;;9.72;43.76;102736.22;10519067;28;20203;-82
2022/01/13 16:04:38;;;;;;;25.63;13.30;;;;;;;9.74;43.62;102738.75;10534980;28;20229;-81
2022/01/13 16:09:40;;;;;;;24.27;12.90;;;;;;;9.34;43.91;102744.56;10525746;28;20318;-82
2022/01/13 16:14:45;;;;;;;24.00;12.57;;;;;;;9.26;44.63;102759.00;10539851;28;20271;-82
2022/01/13 16:19:49;;;;;;;26.03;12.33;;;;;;;9.26;44.71;102764.63;10502144;28;20198;-83
2022/01/13 16:24:52;;;;;;;25.67;12.40;;;;;;;9.49;43.78;102764.44;10555217;28;20197;-82
2022/01/13 16:29:59;;;;;;;29.17;14.50;;;;;;;9.15;44.39;102768.34;10562128;28;20194;-83
2022/01/13 16:35:07;;;;;;;26.43;12.90;;;;;;;9.21;44.14;102775.75;10553972;28;20420;-83
2022/01/13 16:40:13;;;;;;;27.30;13.77;;;;;;;9.23;44.36;102768.78;10529347;28;20194;-82
2022/01/13 16:45:18;;;;;;;23.90;13.20;;;;;;;9.48;43.56;102751.53;10531067;28;20194;-83
2022/01/13 16:50:22;;;;;;;26.80;13.03;;;;;;;8.69;45.08;102761.88;10527976;28;20234;-83
2022/01/13 16:55:25;;;;;;;22.90;11.83;;;;;;;9.00;44.77;102760.50;10531069;28;20295;-82
2022/01/13 17:00:28;;;;;;;26.57;12.20;;;;;;;8.91;44.71;102751.69;10580402;28;20182;-82
2022/01/13 17:05:31;;;;;;;22.47;12.50;;;;;;;9.02;44.47;102752.72;10546952;28;20227;-82
2022/01/13 17:10:33;;;;;;;22.47;11.63;;;;;;;9.05;44.33;102745.75;10517804;28;20224;-82
2022/01/13 17:15:35;;;;;;;23.30;12.07;;;;;;;9.01;44.36;102749.06;10534327;28;20315;-81
2022/01/13 17:20:41;;;;;;;20.77;12.47;;;;;;;8.61;44.68;102757.53;10515767;28;20240;-82
2022/01/13 17:25:44;;;;;;;21.60;11.43;;;;;;;8.54;44.86;102750.38;10516597;28;20666;-82
2022/01/13 17:30:46;;;;;;;23.33;12.60;;;;;;;8.65;44.71;102753.16;10530506;28;20210;-82
2022/01/13 17:35:48;;;;;;;24.67;13.40;;;;;;;8.49;44.58;102756.72;10545667;28;20263;-81
2022/01/13 17:40:52;;;;;;;24.60;13.80;;;;;;;8.56;45.03;102759.38;10569088;28;20198;-82
2022/01/13 17:45:54;;;;;;;23.10;12.73;;;;;;;8.40;45.79;102763.84;10504961;28;20820;-81
2022/01/13 17:50:57;;;;;;;23.33;13.10;;;;;;;8.29;45.22;102765.50;10526979;28;20221;-81
2022/01/13 17:55:59;;;;;;;26.30;13.07;;;;;;;8.65;44.54;102771.91;10497998;28;20276;-82
2022/01/13 18:01:02;;;;;;;25.47;13.70;;;;;;;8.40;45.23;102775.03;10502906;28;20202;-82
2022/01/13 18:06:04;;;;;;;23.93;12.80;;;;;;;8.46;45.03;102782.44;10510243;28;20230;-82
2022/01/13 18:11:08;;;;;;;25.07;14.00;;;;;;;8.42;44.99;102783.16;10524682;28;20660;-83
2022/01/13 18:16:10;;;;;;;23.23;12.90;;;;;;;8.28;45.39;102779.78;10512149;28;20254;-81
2022/01/13 18:21:12;;;;;;;22.77;12.13;;;;;;;8.29;45.58;102773.91;10538127;28;20194;-81
2022/01/13 18:26:15;;;;;;;24.10;13.57;;;;;;;8.29;45.02;102782.31;10521210;28;20228;-81
2022/01/13 18:31:17;;;;;;;24.10;13.30;;;;;;;8.11;45.56;102774.09;10518913;28;20190;-83
2022/01/13 18:36:19;;;;;;;23.83;14.27;;;;;;;7.83;46.22;102774.84;10518748;28;20254;-82
2022/01/13 18:41:22;;;;;;;27.97;14.90;;;;;;;7.73;46.42;102776.56;10502458;28;20234;-82
2022/01/13 18:46:24;;;;;;;34.10;16.33;;;;;;;7.93;45.91;102772.28;10514906;28;20226;-81
2022/01/13 18:51:27;;;;;;;28.87;16.00;;;;;;;7.87;46.22;102761.22;10542112;28;20206;-80
2022/01/13 18:56:29;;;;;;;27.00;15.67;;;;;;;7.84;46.21;102756.13;10517911;28;20264;-83
2022/01/13 19:01:32;;;;;;;27.57;17.20;;;;;;;7.74;46.46;102744.69;10517844;28;20216;-83
2022/01/13 19:06:34;;;;;;;28.77;16.07;;;;;;;7.33;47.55;102743.72;10542333;28;20277;-83
2022/01/13 19:11:37;;;;;;;26.20;13.50;;;;;;;7.37;47.74;102744.91;10532311;28;20250;-83
2022/01/13 19:16:41;;;;;;;23.60;13.40;;;;;;;7.99;45.90;102730.41;10551864;28;20260;-83
2022/01/13 19:21:43;;;;;;;25.60;14.37;;;;;;;7.71;46.55;102739.56;10527400;28;20259;-84
2022/01/13 19:26:46;;;;;;;24.43;13.97;;;;;;;7.96;46.23;102731.75;10535916;28;20267;-83
2022/01/13 19:31:48;;;;;;;25.43;14.23;;;;;;;8.10;45.54;102727.59;10531286;28;20199;-83
2022/01/13 19:36:50;;;;;;;26.83;14.47;;;;;;;8.06;45.78;102731.13;10564493;28;20278;-84
2022/01/13 19:41:55;;;;;;;20.27;12.53;;;;;;;7.75;46.32;102719.28;10542351;28;20594;-87
2022/01/13 19:46:57;;;;;;;26.40;11.87;;;;;;;7.86;46.34;102714.75;10517400;28;20207;-83
2022/01/13 19:52:00;;;;;;;20.83;11.27;;;;;;;8.03;45.69;102715.66;10527277;28;20518;-88
2022/01/13 19:57:02;;;;;;;29.40;13.70;;;;;;;7.81;46.00;102718.28;10510969;28;20227;-84
2022/01/13 20:02:04;;;;;;;24.70;12.60;;;;;;;7.63;46.34;102724.03;10532696;28;20195;-83
2022/01/13 20:07:07;;;;;;;25.93;13.13;;;;;;;7.75;46.01;102718.41;10516011;28;20630;-83
2022/01/13 20:12:11;;;;;;;22.37;12.20;;;;;;;7.85;45.76;102721.44;10524290;28;20244;-84
2022/01/13 20:17:14;;;;;;;27.47;12.60;;;;;;;7.90;45.61;102721.53;10524273;28;20219;-84
2022/01/13 20:22:16;;;;;;;24.60;13.07;;;;;;;7.78;45.70;102723.50;10473816;28;20229;-82
2022/01/13 20:27:20;;;;;;;23.37;12.37;;;;;;;7.64;46.11;102716.44;10479862;28;20248;-84
2022/01/13 20:32:22;;;;;;;24.37;12.20;;;;;;;7.59;46.23;102732.03;10464384;28;20223;-87
2022/01/13 20:37:24;;;;;;;23.37;12.40;;;;;;;7.45;46.45;102725.00;10456565;28;20288;-90
2022/01/13 20:42:27;;;;;;;23.47;12.37;;;;;;;7.66;45.89;102719.88;10480675;28;20203;-87
2022/01/13 20:47:29;;;;;;;20.20;10.73;;;;;;;7.51;46.63;102709.16;10458665;28;20576;-89
2022/01/13 20:52:32;;;;;;;23.37;11.43;;;;;;;7.61;46.19;102709.44;10468771;28;20203;-90
2022/01/13 20:57:34;;;;;;;21.47;10.90;;;;;;;7.74;45.84;102705.53;10481793;28;20211;-87
2022/01/13 21:02:40;;;;;;;16.57;10.13;;;;;;;7.66;46.88;102705.88;10484943;28;20195;-87
2022/01/13 21:07:43;;;;;;;22.73;10.70;;;;;;;7.52;46.99;102703.31;10515625;28;20214;-87
2022/01/13 21:12:45;;;;;;;22.37;10.60;;;;;;;8.04;45.67;102699.72;10529499;28;20206;-87
2022/01/13 21:17:47;;;;;;;18.03;10.37;;;;;;;7.96;45.88;102698.16;10519447;28;20230;-83
2022/01/13 21:22:50;;;;;;;18.50;11.37;;;;;;;7.98;45.67;102684.78;10503167;28;20199;-84
2022/01/13 21:27:52;;;;;;;21.80;10.50;;;;;;;7.50;47.42;102685.94;10518309;28;20190;-87
2022/01/13 21:32:56;;;;;;;21.03;10.30;;;;;;;7.31;47.69;102689.97;10527918;28;20256;-84
2022/01/13 21:37:58;;;;;;;18.17;9.83;;;;;;;7.46;47.37;102679.16;10528432;28;20210;-85
2022/01/13 21:43:01;;;;;;;23.10;11.40;;;;;;;7.22;48.02;102680.25;10530242;28;20195;-85
2022/01/13 21:48:10;;;;;;;15.40;9.57;;;;;;;7.94;46.79;102683.56;10540530;28;20244;-84
2022/01/13 21:53:14;;;;;;;18.17;10.47;;;;;;;7.46;48.07;102683.88;10489072;28;20232;-86
2022/01/13 21:58:16;;;;;;;17.97;10.40;;;;;;;7.12;48.68;102686.38;10519785;28;20260;-85
2022/01/13 22:03:20;;;;;;;18.17;10.70;;;;;;;7.74;47.62;102671.94;10486080;28;20328;-85
2022/01/13 22:13:35;;;;;;;21.93;10.73;;;;;;;7.76;47.71;102659.38;10548618;28;20201;-85
2022/01/13 22:18:38;;;;;;;20.93;10.30;;;;;;;8.00;47.40;102649.00;10568252;28;20250;-85
2022/01/13 22:23:40;;;;;;;20.73;10.80;;;;;;;7.86;47.18;102647.56;10562475;28;20255;-83
2022/01/13 22:28:43;;;;;;;16.93;10.53;;;;;;;7.85;47.63;102651.47;10534287;28;20894;-84
2022/01/13 22:33:45;;;;;;;18.50;10.80;;;;;;;7.98;47.09;102642.78;10527182;28;20206;-85
2022/01/13 22:38:47;;;;;;;21.53;11.37;;;;;;;7.31;49.17;102649.97;10525537;28;20226;-84
2022/01/13 22:43:49;;;;;;;18.80;11.03;;;;;;;7.91;47.84;102639.28;10525949;28;20207;-85
2022/01/13 22:48:52;;;;;;;19.20;10.93;;;;;;;8.11;47.29;102616.44;10549922;28;20194;-88
2022/01/13 22:53:54;;;;;;;25.43;12.50;;;;;;;7.93;47.72;102615.53;10546822;28;20579;-85
2022/01/13 22:58:56;;;;;;;21.70;12.27;;;;;;;8.03;47.44;102603.69;10527542;28;20284;-86
2022/01/13 23:03:59;;;;;;;20.10;11.13;;;;;;;7.85;48.09;102603.91;10557822;28;20209;-87
2022/01/13 23:09:02;;;;;;;20.33;11.73;;;;;;;8.00;47.69;102601.41;10551031;28;20688;-86
2022/01/13 23:14:11;;;;;;;20.87;12.40;;;;;;;7.98;48.13;102598.00;10567478;28;20544;-85
2022/01/13 23:24:34;;;;;;;21.17;11.37;;;;;;;7.28;49.67;102595.38;10570401;28;20234;-84
2022/01/13 23:29:37;;;;;;;22.00;11.83;;;;;;;7.50;49.11;102590.84;10567021;28;20186;-85
2022/01/13 23:34:40;;;;;;;21.43;13.00;;;;;;;7.67;49.13;102581.69;10543679;28;20198;-84
2022/01/13 23:39:42;;;;;;;23.50;12.07;;;;;;;7.94;48.76;102580.00;10563376;28;20218;-85
2022/01/13 23:44:47;;;;;;;21.47;11.63;;;;;;;7.52;49.69;102597.03;10554429;28;20474;-84